首页
METAR-TAF:

METAR-TAF

机场 :

布萊茲諾頓皇家空軍基地

Brize Norton, 英格兰

纬度: 51-45N, 经度: 001-35W, 海拔: 88米

当前天气观测

该预报发布于30分钟前的17:50 UTC
风速3节,风向西转西南
温度 3°C
湿度 81%
气压 1046 hPa
能见度10公里或以上
1500米以下无云,无积雨云

METAR: EGVN 201750Z 25003KT CAVOK 03/00 Q1046 NOSIG RMK BLU BLU

时间: 18:20 (18:20 UTC)

预报

该预报发布于1小时和9分钟前的17:11 UTC
预报有效从20日的 18点(UTC)到 21日的 18点(UTC)
风速3节,风向多变
能见度10公里或以上
1500米以下无云,无积雨云
几率 40%
从 20日的 22点(UTC)到 21日的 01点(UTC)
能見度: 5000
轻雾
成为
从 21日的 01点(UTC)到 21日的 04点(UTC)
能見度: 4000
轻雾, 浅雾
几率 40%
从 21日的 02点(UTC)到 21日的 11点(UTC)
能見度: 0200
冻雾
成为
从 21日的 11点(UTC)到 21日的 13点(UTC)
能见度10公里或以上
少量云层高于1000英尺
几率 40% :
短暂存在
从 21日的 11点(UTC)到 21日的 18点(UTC)
散云层高于1000英尺

TAF: EGVN 201711Z 2018/2118 VRB03KT CAVOK PROB40 2022/2101 5000 BR BECMG 2101/2104 4000 BR MIFG PROB40 2102/2111 0200 FZFG VV/// BECMG 2111/2113 9999 NSW FEW010 PROB40 TEMPO 2111/2118 SCT010

超过4000个机场的气象观测和天气预报(METAR&TAF报告)。

可查询的气象台以黄色和红色小点在地图上表示。

将鼠标移到小点上方,可查看气象台名称。

然后点击查看天气观测和预报。

如需切换地图:点击带黑十字的绿色按钮放大地图;点击带横线的绿色按钮缩小地图;或者点击绿色箭头查看邻近地区的地图。


METAR-TAF: